createdAt,value
2022-08-10T00:00:51.349Z,67.68
2022-08-10T00:05:53.484Z,70.82
2022-08-10T00:10:56.942Z,70.63
2022-08-10T00:15:58.638Z,72.32
2022-08-10T00:21:00.290Z,72.79
2022-08-10T00:26:02.465Z,73.01
2022-08-10T00:31:04.028Z,72.45
2022-08-10T00:36:05.932Z,74.22
2022-08-10T00:41:07.538Z,74.95
2022-08-10T00:46:09.113Z,75.93
2022-08-10T00:51:11.256Z,76.99
2022-08-10T00:57:05.117Z,77.41
2022-08-10T01:02:10.774Z,78.82
2022-08-10T01:06:58.649Z,79.33
2022-08-10T01:12:40.927Z,79.68
2022-08-10T01:17:50.935Z,81.79
2022-08-10T01:23:14.587Z,78.93
2022-08-10T01:28:56.473Z,82.37
2022-08-10T01:34:05.183Z,84.31
2022-08-10T01:39:08.242Z,85.02
2022-08-10T01:44:13.908Z,84.12
2022-08-10T01:49:20.037Z,84.85
2022-08-10T01:54:25.604Z,86.53
2022-08-10T01:59:34.909Z,87.56
2022-08-10T02:04:39.844Z,86.99
2022-08-10T02:09:48.028Z,87.74
2022-08-10T02:14:56.908Z,90.13
2022-08-10T02:20:02.203Z,88.89
2022-08-10T02:25:05.239Z,88.72
2022-08-10T02:30:08.271Z,89.98
2022-08-10T02:35:22.270Z,90.04
2022-08-10T02:45:12.914Z,89.84
2022-08-10T02:45:52.582Z,90.41
2022-08-10T02:51:05.267Z,92.48
2022-08-10T02:56:11.675Z,92.28
2022-08-10T03:01:17.866Z,93.01
2022-08-10T03:06:23.501Z,93.67
2022-08-10T03:12:35.394Z,93.50
2022-08-10T03:16:51.841Z,94.50
2022-08-10T03:21:55.563Z,95.34
2022-08-10T03:26:57.821Z,94.81
2022-08-10T03:32:02.083Z,94.27
2022-08-10T03:37:03.942Z,94.08
2022-08-10T03:42:09.146Z,93.17
2022-08-10T03:47:16.187Z,92.87
2022-08-10T03:52:19.375Z,91.50
2022-08-10T03:57:21.919Z,90.17
2022-08-10T04:02:41.520Z,90.57
2022-08-10T04:07:46.136Z,90.70
2022-08-10T04:12:47.681Z,90.64
2022-08-10T04:18:03.573Z,89.79
2022-08-10T04:23:12.219Z,89.80
2022-08-10T04:28:14.565Z,90.18
2022-08-10T04:33:19.972Z,92.20
2022-08-10T04:38:24.702Z,96.03
2022-08-10T04:43:26.462Z,99.18
2022-08-10T04:48:42.813Z,98.09
2022-08-10T04:54:03.793Z,97.73
2022-08-10T04:59:09.459Z,94.94
2022-08-10T05:04:36.308Z,93.46
2022-08-10T05:09:32.519Z,92.83
2022-08-10T05:14:34.268Z,92.99
2022-08-10T05:20:03.133Z,91.73
2022-08-10T05:24:57.513Z,87.43
2022-08-10T05:30:02.607Z,82.95
2022-08-10T05:35:05.457Z,79.40
2022-08-10T05:40:08.156Z,77.56
2022-08-10T05:45:20.846Z,77.33
2022-08-10T05:50:27.071Z,77.15
2022-08-10T05:55:30.761Z,73.53
2022-08-10T06:00:41.843Z,72.28
2022-08-10T06:05:47.723Z,70.57
2022-08-10T06:12:21.892Z,67.05
2022-08-10T06:16:15.988Z,64.46
2022-08-10T06:21:19.152Z,60.81
2022-08-10T06:26:21.837Z,56.02
2022-08-10T06:31:26.076Z,54.98
2022-08-10T06:36:33.965Z,53.78
2022-08-10T06:42:14.644Z,54.35
2022-08-10T06:47:07.502Z,51.83
2022-08-10T06:52:18.092Z,49.94
2022-08-10T06:57:26.449Z,47.11
2022-08-10T07:02:41.360Z,48.00
2022-08-10T07:07:45.635Z,46.09
2022-08-10T07:12:50.023Z,46.20
2022-08-10T07:17:53.074Z,43.39
2022-08-10T07:23:27.285Z,42.76
2022-08-10T07:28:19.034Z,41.02
2022-08-10T07:33:22.949Z,40.59
2022-08-10T07:38:28.817Z,37.56
2022-08-10T07:43:35.430Z,38.48
2022-08-10T07:48:43.874Z,37.86
2022-08-10T07:53:51.209Z,36.66
2022-08-10T07:59:07.135Z,35.89
2022-08-10T08:04:12.613Z,36.88
2022-08-10T08:09:14.666Z,35.95
2022-08-10T08:14:16.911Z,37.44
2022-08-10T08:19:28.555Z,38.87
2022-08-10T08:24:40.488Z,34.24
2022-08-10T08:29:45.385Z,32.79
2022-08-10T08:34:49.233Z,32.18
2022-08-10T08:39:51.110Z,30.88
2022-08-10T08:45:11.484Z,33.18
2022-08-10T08:50:31.345Z,30.76
2022-08-10T08:56:04.735Z,30.00
2022-08-10T09:01:13.139Z,29.94
2022-08-10T09:06:41.950Z,32.20
2022-08-10T09:11:58.727Z,31.69
2022-08-10T09:17:12.211Z,30.68
2022-08-10T09:22:25.440Z,28.92
2022-08-10T09:27:35.463Z,26.59
2022-08-10T09:36:13.628Z,26.09
2022-08-10T09:38:22.593Z,26.26
2022-08-10T09:43:50.056Z,25.23
2022-08-10T09:49:06.508Z,26.34
2022-08-10T09:54:46.502Z,26.62
2022-08-10T10:00:12.558Z,25.16
2022-08-10T10:05:25.190Z,24.65
2022-08-10T10:10:47.894Z,23.15
2022-08-10T10:16:28.013Z,24.34
2022-08-10T10:22:03.867Z,25.77
2022-08-10T10:27:17.685Z,23.11
2022-08-10T10:32:36.541Z,24.14
2022-08-10T10:38:02.471Z,22.88
2022-08-10T10:43:13.383Z,23.27
2022-08-10T10:48:29.388Z,24.54
2022-08-10T10:53:39.374Z,22.97
2022-08-10T10:58:49.764Z,23.54
2022-08-10T11:04:06.348Z,23.50
2022-08-10T11:10:07.902Z,23.14
2022-08-10T11:14:48.052Z,22.59
2022-08-10T11:20:14.505Z,21.76
2022-08-10T11:25:18.931Z,23.15
2022-08-10T11:30:44.602Z,23.84
2022-08-10T11:36:03.749Z,21.64
2022-08-10T11:42:09.256Z,23.39
2022-08-10T11:47:19.027Z,22.32
2022-08-10T11:52:40.799Z,22.08
2022-08-10T11:57:53.788Z,21.95
2022-08-10T12:02:59.882Z,21.25
2022-08-10T12:10:06.684Z,21.46
2022-08-10T12:14:10.749Z,21.24
2022-08-10T12:19:20.594Z,21.47
2022-08-10T12:24:44.329Z,22.21
2022-08-10T12:30:07.263Z,22.30
2022-08-10T12:35:26.383Z,21.68
2022-08-10T12:40:38.029Z,22.26
2022-08-10T12:45:48.362Z,22.63
2022-08-10T12:50:57.913Z,22.24
2022-08-10T12:56:00.781Z,21.42
2022-08-10T13:01:19.753Z,21.71
2022-08-10T13:06:23.148Z,19.56
2022-08-10T13:12:35.786Z,21.78
2022-08-10T13:16:51.889Z,21.89
2022-08-10T13:21:56.287Z,19.88
2022-08-10T13:27:26.011Z,20.23
2022-08-10T13:32:27.816Z,20.29
2022-08-10T13:37:33.028Z,19.97
2022-08-10T13:42:37.389Z,20.20
2022-08-10T13:47:49.495Z,20.38
2022-08-10T13:52:54.540Z,19.55
2022-08-10T13:57:59.676Z,21.40
2022-08-10T14:03:08.196Z,20.50
2022-08-10T14:08:13.531Z,20.13
2022-08-10T14:13:18.272Z,20.66
2022-08-10T14:18:20.171Z,18.73
2022-08-10T14:23:21.949Z,17.78
2022-08-10T14:28:32.788Z,19.67
2022-08-10T14:33:36.173Z,20.42
2022-08-10T14:38:42.807Z,20.82
2022-08-10T14:43:54.187Z,21.26
2022-08-10T14:48:58.485Z,21.23
2022-08-10T14:54:03.306Z,21.53
2022-08-10T14:59:09.356Z,18.76
2022-08-10T15:04:13.643Z,20.66
2022-08-10T15:09:19.570Z,20.47
2022-08-10T15:14:43.071Z,20.46
2022-08-10T15:20:04.270Z,19.07
2022-08-10T15:25:18.715Z,19.43
2022-08-10T15:30:27.029Z,19.84
2022-08-10T15:35:34.225Z,19.87
2022-08-10T15:40:51.276Z,18.99
2022-08-10T15:45:59.008Z,19.52
2022-08-10T15:51:10.288Z,19.15
2022-08-10T15:56:28.347Z,21.26
2022-08-10T16:02:14.618Z,20.46
2022-08-10T16:07:12.348Z,21.60
2022-08-10T16:12:29.740Z,21.48
2022-08-10T16:17:54.422Z,19.80
2022-08-10T16:23:00.661Z,20.91
2022-08-10T16:28:07.759Z,19.80
2022-08-10T16:33:12.820Z,20.78
2022-08-10T16:38:16.659Z,21.69
2022-08-10T16:43:23.810Z,20.95
2022-08-10T16:48:49.161Z,19.91
2022-08-10T16:53:53.711Z,21.32
2022-08-10T16:58:57.349Z,21.42
2022-08-10T17:04:09.977Z,21.58
2022-08-10T17:09:18.894Z,21.04
2022-08-10T17:14:29.084Z,21.37
2022-08-10T17:19:37.043Z,20.26
2022-08-10T17:24:45.294Z,20.78
2022-08-10T17:29:58.826Z,21.66
2022-08-10T17:35:10.713Z,23.93
2022-08-10T17:40:18.869Z,24.79
2022-08-10T17:45:46.230Z,25.83
2022-08-10T17:50:51.155Z,25.95
2022-08-10T17:55:58.410Z,26.28
2022-08-10T18:01:41.500Z,25.37
2022-08-10T18:06:25.303Z,26.20
2022-08-10T18:11:33.553Z,26.04
2022-08-10T18:16:35.762Z,26.84
2022-08-10T18:21:47.709Z,26.95
2022-08-10T18:26:52.442Z,26.91
2022-08-10T18:32:02.662Z,27.16
2022-08-10T18:37:09.336Z,28.14
2022-08-10T18:42:43.227Z,27.80
2022-08-10T18:47:59.567Z,28.82
2022-08-10T18:53:09.159Z,28.27
2022-08-10T18:58:42.942Z,28.76
2022-08-10T19:04:30.885Z,28.81
2022-08-10T19:09:54.318Z,29.39
2022-08-10T19:15:27.819Z,29.87
2022-08-10T19:20:41.083Z,30.71
2022-08-10T19:26:36.452Z,30.78
2022-08-10T19:31:24.206Z,31.15
2022-08-10T19:37:03.130Z,31.63
2022-08-10T19:42:18.505Z,31.62
2022-08-10T19:47:36.213Z,32.24
2022-08-10T19:52:52.424Z,32.92
2022-08-10T19:58:02.866Z,33.13
2022-08-10T20:03:11.898Z,33.64
2022-08-10T20:08:24.053Z,33.81
2022-08-10T20:13:55.154Z,34.07
2022-08-10T20:19:06.475Z,34.54
2022-08-10T20:24:12.652Z,34.89
2022-08-10T20:29:57.604Z,34.65
2022-08-10T20:34:48.119Z,35.74
2022-08-10T20:40:25.778Z,35.57
2022-08-10T20:45:51.841Z,35.99
2022-08-10T20:51:00.366Z,35.93
2022-08-10T20:56:17.305Z,37.10
2022-08-10T21:02:06.544Z,37.35
2022-08-10T21:07:44.124Z,37.01
2022-08-10T21:13:13.690Z,37.58
2022-08-10T21:18:36.270Z,37.51
2022-08-10T21:23:50.383Z,37.48
2022-08-10T21:29:21.874Z,38.09
2022-08-10T21:35:03.805Z,38.53
2022-08-10T21:40:37.605Z,38.06
2022-08-10T21:46:00.933Z,39.12
2022-08-10T21:51:14.697Z,39.08
2022-08-10T21:56:21.122Z,40.79
2022-08-10T22:01:39.744Z,42.24
2022-08-10T22:06:52.129Z,43.47
2022-08-10T22:11:57.917Z,44.80
2022-08-10T22:17:01.934Z,45.20
2022-08-10T22:22:27.150Z,45.49
2022-08-10T22:27:47.274Z,44.53
2022-08-10T22:33:27.033Z,45.12
2022-08-10T22:38:50.394Z,45.64
2022-08-10T22:43:58.163Z,46.89
2022-08-10T22:49:00.169Z,47.40
2022-08-10T22:54:10.447Z,47.29
2022-08-10T22:59:12.096Z,48.16
2022-08-10T23:04:28.435Z,49.47
2022-08-10T23:09:38.575Z,49.62
2022-08-10T23:15:00.195Z,50.37
2022-08-10T23:20:10.119Z,50.70
2022-08-10T23:25:15.978Z,51.94
2022-08-10T23:30:19.109Z,51.30
2022-08-10T23:36:29.692Z,52.71
2022-08-10T23:40:47.458Z,52.51
2022-08-10T23:45:54.428Z,52.40
2022-08-10T23:51:02.208Z,52.80
2022-08-10T23:56:12.947Z,53.69
